Csl Metis — C6WK6 — position and weather

sailwx.info

Track history (hours):
 
Tides and Currents Weather Stations Pressure Air Temp Water Temp Dewpoint Dewpoint Depression Visibility Wind Speed Wind Dir Waves Ship Positions

Csl Metis

Last reported at 2018-May-21 01:18 UTC. Time now 2018-Jun-19 22:16 UTC.
Position N 28°43' W 095°05'.
Warning: this ship's position is 29 days out of date.

Length 230 m; draft 8.3 m.

Type: Cargo ship. MMSI: 308976000.

Date/timePositionNaut miles runAvg speedWind from/ knotsBaromVisibWave heightAir tempDewpointWater temp
2018-May-21 01:18N 28°43' W 095°05'412.9
2018-May-21 00:57N 28°47' W 095°08'612.9
2018-May-21 00:30N 28°51' W 095°12'611.1
2018-May-21 00:00N 28°55' W 095°17'3 5.2
2018-May-20 23:30N 28°56' W 095°20'1 0.6
2018-May-20 22:42N 28°56' W 095°20'0 0.0
2018-May-20 22:27N 28°56' W 095°20'0 0.0
2018-May-20 21:24N 28°56' W 095°20'0 0.0
2018-May-20 20:55N 28°56' W 095°20'0 0.0
2018-May-20 20:21N 28°56' W 095°20'0 0.0
2018-May-20 19:46N 28°56' W 095°20'0 0.0
2018-May-20 17:45N 28°56' W 095°20'0 0.0
2018-May-20 16:15N 28°56' W 095°20'0 0.0
2018-May-19 15:49N 28°56' W 095°20'1 1.8
2018-May-19 15:29N 28°56' W 095°19'2 4.2
2018-May-19 14:57N 28°55' W 095°17'4 7.9
2018-May-19 14:26N 28°53' W 095°14'2 4.0
2018-May-19 13:58N 28°52' W 095°12'1 3.0
2018-May-19 13:30N 28°51' W 095°10'0 0.9
2018-May-19 13:00N 28°51' W 095°10'0 0.1
2018-May-19 12:17N 28°51' W 095°10'0 0.0
2018-May-19 10:17N 28°51' W 095°10'0 0.0
2018-May-19 05:35N 28°51' W 095°10'0 1.1
2018-May-19 05:25N 28°51' W 095°10'2 4.9
2018-May-19 05:00N 28°49' W 095°09'5 9.9
2018-May-19 04:30N 28°45' W 095°05'  
2018-May-16 19:32N 20°38' W 086°59'014.0
2018-May-16 19:30N 20°37' W 086°60'8 0.5
2018-May-16 02:55N 20°34' W 087°07'2 3.0
2018-May-16 02:24N 20°35' W 087°06'0 1.1
2018-May-16 01:58N 20°34' W 087°06'2 2.9
2018-May-16 01:25N 20°35' W 087°05'4 9.0
2018-May-16 01:00N 20°38' W 087°01'  
2018-May-13 19:28N 29°37' W 093°19'910.8
2018-May-13 18:39N 29°46' W 093°21'2 6.4
2018-May-13 18:18N 29°48' W 093°21'3 8.3
2018-May-13 18:00N 29°51' W 093°21'5 9.4
2018-May-13 17:30N 29°55' W 093°20'5 9.2
2018-May-13 17:00N 29°60' W 093°20'4 7.2
2018-May-13 16:30N 30°04' W 093°20'4 7.5
2018-May-13 16:00N 30°07' W 093°20'3 5.7
2018-May-13 15:30N 30°10' W 093°19'3 5.2
2018-May-13 15:00N 30°12' W 093°17'2 4.1
2018-May-13 14:30N 30°13' W 093°15'1 1.8
2018-May-13 14:00N 30°14' W 093°15'0 0.0
2018-May-12 15:18N 30°14' W 093°15'0 0.0
2018-May-12 14:54N 30°14' W 093°15'0 0.5
2018-May-12 14:30N 30°14' W 093°15'1 2.0
2018-May-12 14:00N 30°13' W 093°16'2 5.1
2018-May-12 13:30N 30°11' W 093°18'2 4.2
2018-May-12 13:00N 30°10' W 093°19'2 4.6
2018-May-12 12:30N 30°08' W 093°20'3 6.5
2018-May-12 12:00N 30°04' W 093°20'3 6.5
2018-May-12 11:30N 30°01' W 093°20'4 7.7
2018-May-12 10:59N 29°57' W 093°20'4 8.8
2018-May-12 10:30N 29°53' W 093°21'5 9.6
2018-May-12 09:59N 29°48' W 093°21'5 9.7
2018-May-12 09:28N 29°43' W 093°20'510.8
2018-May-12 08:58N 29°38' W 093°19'611.8
2018-May-12 08:27N 29°33' W 093°15'511.1
2018-May-12 07:59N 29°28' W 093°13'611.9
2018-May-12 07:30N 29°22' W 093°13'4 7.0
2018-May-12 06:59N 29°18' W 093°13'2 3.2
2018-May-12 06:29N 29°17' W 093°12'1 0.0
2018-May-11 09:08N 29°16' W 093°13'3 5.5
2018-May-11 08:38N 29°14' W 093°13'1 8.9
2018-May-11 08:29N 29°12' W 093°13'  
Track history (hours):
 
Tides and Currents Weather Stations Pressure Air Temp Water Temp Dewpoint Dewpoint Depression Visibility Wind Speed Wind Dir Waves Ship Positions

Csl Metis

Last reported at 2018-May-21 01:18 UTC. Time now 2018-Jun-19 22:16 UTC.
Position N 28°43' W 095°05'.
Warning: this ship's position is 29 days out of date.

Length 230 m; draft 8.3 m.

Type: Cargo ship. MMSI: 308976000.

Date/timePositionNaut miles runAvg speedWind from/ knotsBaromVisibWave heightAir tempDewpointWater temp
2018-May-21 01:18N 28°43' W 095°05'412.9
2018-May-21 00:57N 28°47' W 095°08'612.9
2018-May-21 00:30N 28°51' W 095°12'611.1
2018-May-21 00:00N 28°55' W 095°17'3 5.2
2018-May-20 23:30N 28°56' W 095°20'1 0.6
2018-May-20 22:42N 28°56' W 095°20'0 0.0
2018-May-20 22:27N 28°56' W 095°20'0 0.0
2018-May-20 21:24N 28°56' W 095°20'0 0.0
2018-May-20 20:55N 28°56' W 095°20'0 0.0
2018-May-20 20:21N 28°56' W 095°20'0 0.0
2018-May-20 19:46N 28°56' W 095°20'0 0.0
2018-May-20 17:45N 28°56' W 095°20'0 0.0
2018-May-20 16:15N 28°56' W 095°20'0 0.0
2018-May-19 15:49N 28°56' W 095°20'1 1.8
2018-May-19 15:29N 28°56' W 095°19'2 4.2
2018-May-19 14:57N 28°55' W 095°17'4 7.9
2018-May-19 14:26N 28°53' W 095°14'2 4.0
2018-May-19 13:58N 28°52' W 095°12'1 3.0
2018-May-19 13:30N 28°51' W 095°10'0 0.9
2018-May-19 13:00N 28°51' W 095°10'0 0.1
2018-May-19 12:17N 28°51' W 095°10'0 0.0
2018-May-19 10:17N 28°51' W 095°10'0 0.0
2018-May-19 05:35N 28°51' W 095°10'0 1.1
2018-May-19 05:25N 28°51' W 095°10'2 4.9
2018-May-19 05:00N 28°49' W 095°09'5 9.9
2018-May-19 04:30N 28°45' W 095°05'  
2018-May-16 19:32N 20°38' W 086°59'014.0
2018-May-16 19:30N 20°37' W 086°60'8 0.5
2018-May-16 02:55N 20°34' W 087°07'2 3.0
2018-May-16 02:24N 20°35' W 087°06'0 1.1
2018-May-16 01:58N 20°34' W 087°06'2 2.9
2018-May-16 01:25N 20°35' W 087°05'4 9.0
2018-May-16 01:00N 20°38' W 087°01'  
2018-May-13 19:28N 29°37' W 093°19'910.8
2018-May-13 18:39N 29°46' W 093°21'2 6.4
2018-May-13 18:18N 29°48' W 093°21'3 8.3
2018-May-13 18:00N 29°51' W 093°21'5 9.4
2018-May-13 17:30N 29°55' W 093°20'5 9.2
2018-May-13 17:00N 29°60' W 093°20'4 7.2
2018-May-13 16:30N 30°04' W 093°20'4 7.5
2018-May-13 16:00N 30°07' W 093°20'3 5.7
2018-May-13 15:30N 30°10' W 093°19'3 5.2
2018-May-13 15:00N 30°12' W 093°17'2 4.1
2018-May-13 14:30N 30°13' W 093°15'1 1.8
2018-May-13 14:00N 30°14' W 093°15'0 0.0
2018-May-12 15:18N 30°14' W 093°15'0 0.0
2018-May-12 14:54N 30°14' W 093°15'0 0.5
2018-May-12 14:30N 30°14' W 093°15'1 2.0
2018-May-12 14:00N 30°13' W 093°16'2 5.1
2018-May-12 13:30N 30°11' W 093°18'2 4.2
2018-May-12 13:00N 30°10' W 093°19'2 4.6
2018-May-12 12:30N 30°08' W 093°20'3 6.5
2018-May-12 12:00N 30°04' W 093°20'3 6.5
2018-May-12 11:30N 30°01' W 093°20'4 7.7
2018-May-12 10:59N 29°57' W 093°20'4 8.8
2018-May-12 10:30N 29°53' W 093°21'5 9.6
2018-May-12 09:59N 29°48' W 093°21'5 9.7
2018-May-12 09:28N 29°43' W 093°20'510.8
2018-May-12 08:58N 29°38' W 093°19'611.8
2018-May-12 08:27N 29°33' W 093°15'511.1
2018-May-12 07:59N 29°28' W 093°13'611.9
2018-May-12 07:30N 29°22' W 093°13'4 7.0
2018-May-12 06:59N 29°18' W 093°13'2 3.2
2018-May-12 06:29N 29°17' W 093°12'1 0.0
2018-May-11 09:08N 29°16' W 093°13'3 5.5
2018-May-11 08:38N 29°14' W 093°13'1 8.9
2018-May-11 08:29N 29°12' W 093°13'  

Dump ship's entire track history